Time;durP1;ratioP1;P1;durP2;ratioP2;P2;SDS_P1;SDS_P2;PMS_P1;PMS_P2;Temp;Humidity;BMP_temperature;BMP_pressure;BME280_temperature;BME280_humidity;BME280_pressure;Samples;Min_cycle;Max_cycle;Signal;HPM_P1;HPM_P2
2022/01/31 00:00:27;;;;;;;14.97;3.37;;;4.60;99.90;;;;;;5033367;28;20203;-65
2022/01/31 00:02:53;;;;;;;9.50;2.60;;;4.70;99.90;;;;;;5036661;28;20186;-65
2022/01/31 00:05:18;;;;;;;12.07;3.03;;;4.70;99.90;;;;;;5035406;28;20183;-64
2022/01/31 00:07:44;;;;;;;13.10;3.93;;;4.60;99.90;;;;;;5037149;28;20193;-63
2022/01/31 00:10:12;;;;;;;15.53;2.97;;;4.60;99.90;;;;;;5041154;28;20207;-64
2022/01/31 00:12:52;;;;;;;14.13;3.07;;;4.70;99.90;;;;;;5036904;28;20648;-63
2022/01/31 00:15:18;;;;;;;14.47;3.10;;;4.70;99.90;;;;;;5041284;28;20196;-63
2022/01/31 00:17:44;;;;;;;15.50;2.93;;;4.70;99.90;;;;;;5036872;28;20249;-63
2022/01/31 00:20:10;;;;;;;12.00;3.37;;;4.70;99.90;;;;;;5041985;28;20188;-64
2022/01/31 00:22:35;;;;;;;15.10;3.23;;;4.70;99.90;;;;;;5041580;28;20181;-70
2022/01/31 00:25:01;;;;;;;15.77;3.70;;;4.70;99.90;;;;;;5039841;28;20330;-65
2022/01/31 00:27:27;;;;;;;17.17;3.17;;;4.70;99.90;;;;;;5037882;28;20258;-66
2022/01/31 00:29:52;;;;;;;13.87;2.80;;;4.60;99.90;;;;;;5039343;28;20678;-63
2022/01/31 00:32:18;;;;;;;12.53;3.87;;;4.60;99.90;;;;;;5042126;28;20275;-63
2022/01/31 00:34:43;;;;;;;14.57;2.97;;;4.60;99.90;;;;;;5041881;28;20188;-64
2022/01/31 00:37:09;;;;;;;15.47;3.27;;;4.60;99.90;;;;;;5039500;28;20235;-62
2022/01/31 00:39:36;;;;;;;14.67;3.07;;;4.70;99.90;;;;;;5041758;28;20625;-62
2022/01/31 00:42:04;;;;;;;20.13;3.10;;;4.60;99.90;;;;;;5040312;28;20270;-63
2022/01/31 00:44:41;;;;;;;18.60;3.23;;;4.60;99.90;;;;;;5042737;28;20600;-63
2022/01/31 00:47:17;;;;;;;14.20;2.73;;;4.70;99.90;;;;;;5038858;28;20187;-64
2022/01/31 00:49:50;;;;;;;18.10;3.23;;;4.70;99.90;;;;;;5039933;28;20209;-66
2022/01/31 00:52:15;;;;;;;18.97;3.57;;;4.70;99.90;;;;;;5039520;28;20184;-63
2022/01/31 00:54:41;;;;;;;25.27;3.23;;;4.60;99.90;;;;;;5039681;28;20816;-63
2022/01/31 00:57:07;;;;;;;12.57;2.20;;;4.60;99.90;;;;;;5040898;28;20177;-64
2022/01/31 00:59:32;;;;;;;11.63;2.83;;;4.70;99.90;;;;;;5040786;28;20191;-62
2022/01/31 01:01:58;;;;;;;16.03;3.13;;;4.70;99.90;;;;;;5041324;28;20211;-64
2022/01/31 01:04:24;;;;;;;10.20;2.30;;;4.70;99.90;;;;;;5044422;28;20184;-64
2022/01/31 01:06:49;;;;;;;12.27;3.00;;;4.60;99.90;;;;;;5041794;28;20182;-63
2022/01/31 01:09:15;;;;;;;14.10;2.97;;;4.60;99.90;;;;;;5039244;28;20296;-65
2022/01/31 01:11:41;;;;;;;17.70;2.77;;;4.70;99.90;;;;;;5041367;28;20193;-64
2022/01/31 01:14:07;;;;;;;11.07;3.17;;;4.60;99.90;;;;;;5043200;28;20190;-65
2022/01/31 01:16:33;;;;;;;12.00;3.00;;;4.60;99.90;;;;;;5042033;28;20666;-63
2022/01/31 01:18:58;;;;;;;15.53;3.13;;;4.60;99.90;;;;;;5041462;28;20223;-64
2022/01/31 01:21:24;;;;;;;18.20;3.80;;;4.60;99.90;;;;;;5044015;28;20185;-63
2022/01/31 01:23:50;;;;;;;17.13;3.00;;;4.60;99.90;;;;;;5042930;28;20637;-64
2022/01/31 01:26:16;;;;;;;18.27;3.17;;;4.60;99.90;;;;;;5045410;28;20189;-63
2022/01/31 01:28:44;;;;;;;17.83;3.23;;;4.60;99.90;;;;;;5040830;28;20652;-64
2022/01/31 01:31:10;;;;;;;12.93;3.07;;;4.60;99.90;;;;;;5041161;28;20171;-63
2022/01/31 01:33:39;;;;;;;8.40;2.70;;;4.50;99.90;;;;;;5042983;28;20214;-65
2022/01/31 01:36:06;;;;;;;16.20;3.60;;;4.50;99.90;;;;;;5043805;28;20198;-67
2022/01/31 01:38:32;;;;;;;11.97;2.60;;;4.40;99.90;;;;;;5042912;28;20254;-63
2022/01/31 01:40:59;;;;;;;15.17;3.13;;;4.40;99.90;;;;;;5046159;28;20199;-64
2022/01/31 01:43:26;;;;;;;18.03;3.20;;;4.40;99.90;;;;;;5047370;28;20271;-64
2022/01/31 01:45:53;;;;;;;9.10;2.90;;;4.50;99.90;;;;;;5041052;28;20188;-65
2022/01/31 01:48:20;;;;;;;13.40;3.00;;;4.50;99.90;;;;;;5044081;28;20598;-64
2022/01/31 01:50:46;;;;;;;11.63;3.10;;;4.50;99.90;;;;;;5037837;28;20185;-64
2022/01/31 01:53:12;;;;;;;10.93;2.77;;;4.50;99.90;;;;;;5038859;28;20179;-68
2022/01/31 01:55:38;;;;;;;10.67;3.33;;;4.40;99.90;;;;;;5042532;28;20577;-63
2022/01/31 01:58:06;;;;;;;8.83;2.87;;;4.40;99.90;;;;;;5040039;28;20193;-63
2022/01/31 02:00:49;;;;;;;10.03;2.87;;;4.40;99.90;;;;;;5048046;28;20227;-72
2022/01/31 02:03:16;;;;;;;12.80;3.00;;;4.40;99.90;;;;;;5039808;28;20192;-64
2022/01/31 02:05:41;;;;;;;13.83;3.13;;;4.40;99.90;;;;;;5038715;28;20483;-64
2022/01/31 02:08:08;;;;;;;15.90;3.20;;;4.30;99.90;;;;;;5040265;28;20252;-64
2022/01/31 02:10:34;;;;;;;17.73;3.57;;;4.50;99.90;;;;;;5043335;28;20191;-62
2022/01/31 02:13:05;;;;;;;22.40;3.37;;;4.30;99.90;;;;;;5034913;28;20191;-64
2022/01/31 02:15:31;;;;;;;12.63;2.50;;;4.30;99.90;;;;;;5037148;28;20629;-62
2022/01/31 02:17:56;;;;;;;19.00;3.20;;;4.30;99.90;;;;;;5037208;28;20191;-63
2022/01/31 02:20:22;;;;;;;10.27;2.60;;;4.40;99.90;;;;;;5037562;28;20196;-63
2022/01/31 02:22:49;;;;;;;18.47;4.03;;;4.40;99.90;;;;;;5039465;28;20210;-63
2022/01/31 02:25:15;;;;;;;17.20;2.87;;;4.30;99.90;;;;;;5039856;28;20185;-63
2022/01/31 02:27:41;;;;;;;20.50;3.87;;;4.30;99.90;;;;;;5039604;28;20204;-63
2022/01/31 02:30:09;;;;;;;12.47;2.57;;;4.40;99.90;;;;;;5041030;28;20265;-65
2022/01/31 02:32:35;;;;;;;23.57;3.60;;;4.20;99.90;;;;;;5041010;28;20274;-64
2022/01/31 02:35:01;;;;;;;17.10;3.00;;;4.30;99.90;;;;;;5041035;28;20229;-63
2022/01/31 02:37:27;;;;;;;13.20;2.73;;;4.30;99.90;;;;;;5032712;28;20240;-65
2022/01/31 02:39:52;;;;;;;18.47;3.53;;;4.30;99.90;;;;;;5036403;28;20571;-67
2022/01/31 02:42:18;;;;;;;16.90;3.60;;;4.30;99.90;;;;;;5038742;28;20295;-63
2022/01/31 02:44:45;;;;;;;15.50;2.67;;;4.40;99.90;;;;;;5038628;28;20180;-63
2022/01/31 02:47:38;;;;;;;9.47;3.00;;;4.40;99.90;;;;;;5043702;28;20205;-64
2022/01/31 02:50:00;;;;;;;8.93;3.13;;;4.40;99.90;;;;;;5049596;28;20397;-63
2022/01/31 02:52:31;;;;;;;15.60;3.00;;;4.40;99.90;;;;;;5050104;28;20178;-63
2022/01/31 02:54:57;;;;;;;13.63;2.80;;;4.30;99.90;;;;;;5048764;28;20180;-66
2022/01/31 02:57:23;;;;;;;9.17;2.13;;;4.40;99.90;;;;;;5044256;28;20181;-66
2022/01/31 02:59:49;;;;;;;17.73;2.90;;;4.40;99.90;;;;;;5039649;28;20189;-65
2022/01/31 03:02:16;;;;;;;16.53;2.73;;;4.50;99.90;;;;;;5039338;28;20175;-63
2022/01/31 03:04:41;;;;;;;15.27;3.20;;;4.30;99.90;;;;;;5035443;28;20183;-63
2022/01/31 03:07:07;;;;;;;15.40;3.57;;;4.30;99.90;;;;;;5038945;28;20191;-64
2022/01/31 03:09:33;;;;;;;10.30;2.87;;;4.40;99.90;;;;;;5035573;28;20213;-63
2022/01/31 03:11:59;;;;;;;14.53;3.93;;;4.30;99.90;;;;;;5039511;28;20189;-63
2022/01/31 03:14:25;;;;;;;17.17;2.40;;;4.40;99.90;;;;;;5037895;28;20527;-65
2022/01/31 03:16:51;;;;;;;17.40;3.23;;;4.40;99.90;;;;;;5033351;28;20184;-63
2022/01/31 03:19:18;;;;;;;8.90;2.67;;;4.40;99.90;;;;;;5033664;28;20212;-64
2022/01/31 03:21:45;;;;;;;18.73;3.73;;;4.40;99.90;;;;;;5034770;28;20203;-63
2022/01/31 03:24:11;;;;;;;12.87;3.40;;;4.20;99.90;;;;;;5038996;28;20189;-63
2022/01/31 03:26:38;;;;;;;8.60;2.50;;;4.30;99.90;;;;;;5040974;28;20192;-64
2022/01/31 03:29:05;;;;;;;13.27;3.20;;;4.20;99.90;;;;;;5035755;28;20226;-64
2022/01/31 03:31:31;;;;;;;18.10;4.00;;;4.30;99.90;;;;;;5035887;28;20205;-65
2022/01/31 03:33:57;;;;;;;16.80;3.40;;;4.20;99.90;;;;;;5035001;28;20201;-64
2022/01/31 03:36:23;;;;;;;8.60;2.70;;;4.30;99.90;;;;;;5036693;28;20196;-64
2022/01/31 03:38:50;;;;;;;14.80;2.90;;;4.20;99.90;;;;;;5036674;28;20422;-64
2022/01/31 03:41:18;;;;;;;30.23;3.93;;;4.20;99.90;;;;;;5038106;28;20278;-63
2022/01/31 03:43:44;;;;;;;14.00;3.40;;;4.30;99.90;;;;;;5042862;28;20176;-63
2022/01/31 03:46:10;;;;;;;13.57;3.10;;;4.40;99.90;;;;;;5043963;28;20186;-62
2022/01/31 03:48:36;;;;;;;13.30;3.13;;;4.20;99.90;;;;;;5043085;28;20254;-63
2022/01/31 03:51:03;;;;;;;15.53;2.67;;;4.20;99.90;;;;;;5043677;28;20198;-69
2022/01/31 03:53:29;;;;;;;11.13;3.53;;;4.20;99.90;;;;;;5043704;28;20194;-63
2022/01/31 03:55:55;;;;;;;17.17;3.83;;;4.30;99.90;;;;;;5045552;28;20228;-65
2022/01/31 03:58:21;;;;;;;23.50;3.63;;;4.20;99.90;;;;;;5042384;28;20190;-68
2022/01/31 04:00:47;;;;;;;13.20;3.33;;;4.30;99.90;;;;;;5042492;28;20217;-62
2022/01/31 04:03:13;;;;;;;19.20;3.67;;;4.20;99.90;;;;;;5041744;28;20182;-63
2022/01/31 04:05:39;;;;;;;14.67;4.10;;;4.20;99.90;;;;;;5044026;28;20281;-62
2022/01/31 04:08:06;;;;;;;17.90;3.60;;;4.30;99.90;;;;;;5041401;28;20261;-64
2022/01/31 04:10:31;;;;;;;15.90;3.33;;;4.30;99.90;;;;;;5039189;28;20410;-64
2022/01/31 04:12:57;;;;;;;19.90;3.80;;;4.20;99.90;;;;;;5046906;28;20584;-65
2022/01/31 04:15:23;;;;;;;16.87;3.73;;;4.20;99.90;;;;;;5042445;28;20201;-63
2022/01/31 04:17:48;;;;;;;14.33;3.07;;;4.20;99.90;;;;;;5043264;28;20263;-63
2022/01/31 04:20:15;;;;;;;16.73;3.07;;;4.20;99.90;;;;;;5045274;28;20651;-64
2022/01/31 04:22:49;;;;;;;20.07;3.70;;;4.20;99.90;;;;;;5041822;28;20187;-63
2022/01/31 04:25:29;;;;;;;11.03;3.83;;;4.20;99.90;;;;;;5040020;28;20185;-64
2022/01/31 04:28:01;;;;;;;17.73;3.37;;;4.20;99.90;;;;;;5040756;28;20176;-63
2022/01/31 04:30:30;;;;;;;11.80;2.90;;;4.20;99.90;;;;;;5037907;28;20695;-66
2022/01/31 04:32:56;;;;;;;14.53;3.33;;;4.20;99.90;;;;;;5043120;28;20185;-63
2022/01/31 04:35:22;;;;;;;19.47;3.97;;;4.20;99.90;;;;;;5041984;28;20197;-64
2022/01/31 04:37:47;;;;;;;15.37;3.17;;;4.20;99.90;;;;;;5042555;28;20235;-63
2022/01/31 04:40:14;;;;;;;14.00;2.80;;;4.10;99.90;;;;;;5041331;28;20200;-65
2022/01/31 04:42:43;;;;;;;14.57;3.00;;;4.10;99.90;;;;;;5041344;28;20218;-63
2022/01/31 04:45:09;;;;;;;29.40;3.30;;;4.10;99.90;;;;;;5041023;28;20260;-64
2022/01/31 04:47:35;;;;;;;18.63;3.93;;;4.20;99.90;;;;;;5039433;28;20193;-62
2022/01/31 04:50:01;;;;;;;18.70;3.20;;;4.30;99.90;;;;;;5045294;28;20203;-63
2022/01/31 04:52:27;;;;;;;8.67;2.40;;;4.30;99.90;;;;;;5040076;28;20183;-63
2022/01/31 04:54:52;;;;;;;18.50;3.77;;;4.20;99.90;;;;;;5040614;28;20265;-64
2022/01/31 04:57:18;;;;;;;11.07;2.70;;;4.20;99.90;;;;;;5040964;28;20186;-62
2022/01/31 04:59:44;;;;;;;12.17;3.00;;;4.10;99.90;;;;;;5041629;28;20186;-64
2022/01/31 05:02:10;;;;;;;11.57;3.30;;;4.20;99.90;;;;;;5040556;28;20283;-63
2022/01/31 05:04:36;;;;;;;15.20;3.10;;;4.20;99.90;;;;;;5039207;28;20186;-67
2022/01/31 05:07:02;;;;;;;15.33;2.93;;;4.20;99.90;;;;;;5041710;28;20189;-63
2022/01/31 05:09:28;;;;;;;23.40;3.50;;;4.20;99.90;;;;;;5036830;28;20649;-66
2022/01/31 05:11:54;;;;;;;11.97;2.80;;;4.20;99.90;;;;;;5040112;28;20185;-62
2022/01/31 05:14:19;;;;;;;9.93;2.67;;;4.20;99.90;;;;;;5042129;28;20270;-63
2022/01/31 05:16:45;;;;;;;11.67;3.00;;;4.20;99.90;;;;;;5039522;28;20180;-63
2022/01/31 05:19:11;;;;;;;22.80;3.13;;;4.20;99.90;;;;;;5044396;28;20220;-64
2022/01/31 05:21:38;;;;;;;15.43;3.07;;;4.20;99.90;;;;;;5040365;28;20197;-68
2022/01/31 05:24:04;;;;;;;18.80;3.53;;;4.20;99.90;;;;;;5038881;28;20174;-63
2022/01/31 05:26:30;;;;;;;16.90;3.50;;;4.20;99.90;;;;;;5040390;28;20244;-64
2022/01/31 05:28:56;;;;;;;8.93;3.20;;;4.20;99.90;;;;;;5041366;28;20329;-64
2022/01/31 05:31:22;;;;;;;10.10;3.50;;;4.30;99.90;;;;;;5038549;28;20241;-64
2022/01/31 05:33:47;;;;;;;16.10;4.63;;;4.20;99.90;;;;;;5039617;28;20192;-64
2022/01/31 05:36:13;;;;;;;14.50;3.20;;;4.20;99.90;;;;;;5040141;28;20289;-64
2022/01/31 05:38:39;;;;;;;17.30;3.33;;;4.20;99.90;;;;;;5042043;28;20746;-64
2022/01/31 05:41:08;;;;;;;20.90;3.63;;;4.10;99.90;;;;;;5036083;28;20227;-68
2022/01/31 05:43:34;;;;;;;11.60;2.93;;;4.10;99.90;;;;;;5038825;28;20559;-63
2022/01/31 05:46:00;;;;;;;20.03;3.87;;;4.10;99.90;;;;;;5039736;28;20191;-63
2022/01/31 05:48:26;;;;;;;18.73;3.90;;;4.20;99.90;;;;;;5038867;28;20253;-65
2022/01/31 05:50:51;;;;;;;20.37;3.63;;;4.10;99.90;;;;;;5039564;28;20518;-66
2022/01/31 05:53:17;;;;;;;12.13;2.63;;;4.10;99.90;;;;;;5038494;28;20223;-63
2022/01/31 05:55:45;;;;;;;13.67;3.63;;;4.20;99.90;;;;;;5036670;28;20583;-64
2022/01/31 05:58:10;;;;;;;15.73;3.63;;;4.20;99.90;;;;;;5039275;28;20199;-63
2022/01/31 06:00:37;;;;;;;15.87;2.90;;;4.20;99.90;;;;;;5033013;28;20526;-62
2022/01/31 06:03:04;;;;;;;12.40;3.27;;;4.20;99.90;;;;;;5037336;28;20197;-63
2022/01/31 06:05:29;;;;;;;23.37;4.43;;;4.20;99.90;;;;;;5038009;28;20253;-64
2022/01/31 06:07:55;;;;;;;10.43;3.10;;;4.20;99.90;;;;;;5039504;28;20277;-63
2022/01/31 06:10:25;;;;;;;16.73;3.50;;;4.30;99.90;;;;;;5036813;28;20663;-71
2022/01/31 06:12:52;;;;;;;19.23;4.67;;;4.20;99.90;;;;;;5035045;28;20280;-65
2022/01/31 06:15:18;;;;;;;9.20;3.73;;;4.30;99.90;;;;;;5038584;28;20179;-63
2022/01/31 06:17:44;;;;;;;18.83;3.50;;;4.30;99.90;;;;;;5038577;28;20175;-64
2022/01/31 06:20:10;;;;;;;14.60;3.90;;;4.30;99.90;;;;;;5034806;28;20195;-64
2022/01/31 06:22:47;;;;;;;16.10;4.53;;;4.40;99.90;;;;;;5040652;28;20714;-64
2022/01/31 06:25:13;;;;;;;19.40;5.73;;;4.40;99.90;;;;;;5039153;28;20191;-65
2022/01/31 06:27:39;;;;;;;15.27;5.23;;;4.40;99.90;;;;;;5041116;28;20677;-63
2022/01/31 06:30:05;;;;;;;17.60;5.53;;;4.30;99.90;;;;;;5037508;28;20302;-63
2022/01/31 06:32:31;;;;;;;13.40;4.67;;;4.40;99.90;;;;;;5041934;28;20178;-63
2022/01/31 06:34:57;;;;;;;21.27;4.43;;;4.30;99.90;;;;;;5040163;28;20628;-69
2022/01/31 06:37:23;;;;;;;24.13;5.33;;;4.20;99.90;;;;;;5033338;28;20236;-64
2022/01/31 06:39:49;;;;;;;20.33;6.37;;;4.20;99.90;;;;;;5038491;28;20258;-64
2022/01/31 06:42:15;;;;;;;19.57;5.07;;;4.20;99.90;;;;;;5036873;28;20339;-63
2022/01/31 06:44:41;;;;;;;18.67;6.00;;;4.20;99.90;;;;;;5036617;28;20238;-63
2022/01/31 06:47:06;;;;;;;14.80;5.70;;;4.20;99.90;;;;;;5038007;28;20208;-65
2022/01/31 06:49:32;;;;;;;14.53;6.23;;;4.10;99.90;;;;;;5039753;28;20215;-61
2022/01/31 06:51:58;;;;;;;22.90;5.73;;;4.10;99.90;;;;;;5033529;28;20276;-63
2022/01/31 06:54:23;;;;;;;19.97;5.67;;;4.10;99.90;;;;;;5037975;28;20188;-63
2022/01/31 06:56:49;;;;;;;22.37;5.23;;;4.10;99.90;;;;;;5069705;28;20185;-63
2022/01/31 06:59:15;;;;;;;25.77;6.43;;;4.20;99.90;;;;;;5036493;28;20511;-64
2022/01/31 07:01:40;;;;;;;19.03;7.07;;;4.20;99.90;;;;;;5038699;28;20281;-62
2022/01/31 07:04:06;;;;;;;15.37;5.67;;;4.10;99.90;;;;;;5033794;28;20552;-69
2022/01/31 07:06:32;;;;;;;16.10;6.10;;;4.20;99.90;;;;;;5035719;28;20198;-64
2022/01/31 07:08:59;;;;;;;21.70;5.10;;;4.30;99.90;;;;;;5032904;28;20221;-64
2022/01/31 07:11:28;;;;;;;22.97;6.70;;;4.20;99.90;;;;;;5036866;28;20624;-64
2022/01/31 07:14:06;;;;;;;29.20;5.63;;;4.20;99.90;;;;;;5038687;28;20219;-64
2022/01/31 07:16:34;;;;;;;19.23;4.50;;;4.20;99.90;;;;;;5038560;28;20511;-65
2022/01/31 07:19:06;;;;;;;9.30;3.93;;;4.30;99.90;;;;;;5038642;28;20260;-63
2022/01/31 07:21:46;;;;;;;14.37;3.70;;;4.20;99.90;;;;;;5039102;28;20751;-63
2022/01/31 07:26:45;;;;;;;20.23;4.90;;;4.20;99.90;;;;;;5041014;28;20176;-63
2022/01/31 07:29:11;;;;;;;17.23;4.77;;;4.20;99.90;;;;;;5038010;28;20683;-64
2022/01/31 07:31:38;;;;;;;10.80;3.23;;;4.10;99.90;;;;;;5039047;28;20178;-64
2022/01/31 07:34:04;;;;;;;22.67;3.70;;;4.10;99.90;;;;;;5041874;28;20611;-63
2022/01/31 07:36:30;;;;;;;16.47;3.97;;;4.10;99.90;;;;;;5039335;28;20527;-63
2022/01/31 07:38:56;;;;;;;12.27;3.60;;;4.10;99.90;;;;;;5038045;28;20241;-62
2022/01/31 07:41:21;;;;;;;10.20;3.50;;;4.20;99.90;;;;;;5037930;28;20238;-64
2022/01/31 07:43:47;;;;;;;14.73;3.60;;;4.10;99.90;;;;;;5031690;28;20207;-69
2022/01/31 07:46:14;;;;;;;9.93;2.83;;;4.20;99.90;;;;;;5036036;28;20185;-64
2022/01/31 07:48:39;;;;;;;14.17;3.50;;;4.10;99.90;;;;;;5034857;28;20216;-67
2022/01/31 07:51:05;;;;;;;11.33;3.40;;;4.20;99.90;;;;;;5031189;28;20545;-63
2022/01/31 07:53:31;;;;;;;15.13;3.57;;;4.20;99.90;;;;;;5033295;28;20180;-62
2022/01/31 07:55:59;;;;;;;18.57;3.47;;;4.30;99.90;;;;;;5038103;28;20653;-64
2022/01/31 07:58:25;;;;;;;7.50;2.50;;;4.30;99.90;;;;;;5038184;28;20178;-64
2022/01/31 08:00:51;;;;;;;17.17;5.03;;;4.40;99.90;;;;;;5041559;28;20196;-67
2022/01/31 08:03:16;;;;;;;9.93;3.23;;;4.50;99.90;;;;;;5035710;28;20738;-62
2022/01/31 08:05:43;;;;;;;14.00;2.93;;;4.30;99.90;;;;;;5029097;28;20268;-64
2022/01/31 08:08:08;;;;;;;18.43;3.80;;;4.40;99.90;;;;;;5032111;28;20184;-66
2022/01/31 08:10:36;;;;;;;10.30;3.47;;;4.40;99.90;;;;;;5031915;28;20253;-62
2022/01/31 08:13:04;;;;;;;12.70;2.90;;;4.50;99.90;;;;;;5036212;28;20584;-63
2022/01/31 08:15:30;;;;;;;12.23;3.63;;;4.60;99.90;;;;;;5036440;28;20195;-64
2022/01/31 08:17:56;;;;;;;11.37;3.60;;;4.60;99.90;;;;;;5035690;28;20330;-64
2022/01/31 08:20:21;;;;;;;15.53;4.10;;;4.60;99.90;;;;;;5035933;28;20251;-65
2022/01/31 08:22:47;;;;;;;10.83;3.40;;;4.70;99.90;;;;;;5039379;28;20254;-63
2022/01/31 08:25:16;;;;;;;23.13;5.13;;;4.80;99.90;;;;;;5034647;28;20194;-65
2022/01/31 08:27:43;;;;;;;4.67;3.13;;;4.80;99.90;;;;;;5035878;28;20561;-66
2022/01/31 08:30:14;;;;;;;13.43;4.73;;;4.80;99.90;;;;;;5034286;28;20306;-63
2022/01/31 08:32:58;;;;;;;16.23;4.50;;;4.90;99.90;;;;;;5034693;28;20187;-65
2022/01/31 08:38:08;;;;;;;12.67;3.67;;;4.90;99.90;;;;;;5038939;28;20549;-64
2022/01/31 08:40:34;;;;;;;10.40;2.97;;;4.90;99.90;;;;;;5036457;28;20176;-69
2022/01/31 08:42:59;;;;;;;23.70;4.93;;;4.90;99.90;;;;;;5038964;28;20178;-63
2022/01/31 08:45:25;;;;;;;19.00;7.60;;;5.00;99.90;;;;;;5039598;28;20278;-62
2022/01/31 08:47:51;;;;;;;6.60;3.73;;;5.10;99.90;;;;;;5039381;28;20172;-65
2022/01/31 08:50:16;;;;;;;10.13;3.43;;;5.10;99.90;;;;;;5038059;28;20226;-63
2022/01/31 08:52:42;;;;;;;15.43;4.07;;;5.10;99.90;;;;;;5039650;28;20256;-64
2022/01/31 08:55:09;;;;;;;14.97;5.83;;;5.20;99.90;;;;;;5043101;28;20207;-65
2022/01/31 08:57:35;;;;;;;10.93;3.63;;;5.20;99.90;;;;;;5035402;28;20180;-63
2022/01/31 09:00:01;;;;;;;16.30;3.93;;;5.20;99.90;;;;;;5036037;28;20191;-63
2022/01/31 09:02:38;;;;;;;11.90;3.70;;;5.30;99.90;;;;;;5034706;28;20521;-70
2022/01/31 09:05:04;;;;;;;9.83;3.20;;;5.50;99.90;;;;;;5038109;28;20681;-63
2022/01/31 09:07:30;;;;;;;7.73;3.87;;;5.50;99.90;;;;;;5035535;28;20188;-64
2022/01/31 09:09:58;;;;;;;6.37;2.33;;;5.60;99.90;;;;;;5037333;28;20683;-63
2022/01/31 09:12:28;;;;;;;9.83;2.80;;;5.50;99.90;;;;;;5039592;28;20504;-62
2022/01/31 09:14:54;;;;;;;8.90;2.43;;;5.30;99.90;;;;;;5038181;28;20624;-62
2022/01/31 09:17:20;;;;;;;7.40;2.90;;;5.30;99.90;;;;;;5034356;28;20182;-63
2022/01/31 09:19:46;;;;;;;8.57;2.73;;;5.40;99.90;;;;;;5037412;28;20620;-63
2022/01/31 09:22:12;;;;;;;6.43;2.93;;;5.40;99.90;;;;;;5035654;28;20221;-64
2022/01/31 09:24:39;;;;;;;7.80;2.57;;;5.40;99.90;;;;;;5039101;28;20184;-64
2022/01/31 09:27:06;;;;;;;8.70;2.93;;;5.40;99.90;;;;;;5039825;28;20215;-64
2022/01/31 09:29:32;;;;;;;6.87;2.40;;;5.20;99.90;;;;;;5036517;28;20628;-63
2022/01/31 09:32:00;;;;;;;6.40;2.07;;;5.20;99.90;;;;;;5039562;28;20195;-66
2022/01/31 09:34:26;;;;;;;9.33;3.07;;;5.30;99.90;;;;;;5037943;28;20692;-64
2022/01/31 09:36:51;;;;;;;7.70;2.23;;;5.30;99.90;;;;;;5039221;28;20259;-64
2022/01/31 09:39:17;;;;;;;7.00;2.40;;;5.40;99.90;;;;;;5035279;28;20387;-64
2022/01/31 09:41:46;;;;;;;6.27;2.30;;;5.50;99.90;;;;;;5035215;28;20193;-66
2022/01/31 09:44:21;;;;;;;11.20;2.67;;;5.40;99.90;;;;;;5033754;28;20199;-66
2022/01/31 09:47:05;;;;;;;9.33;2.27;;;5.50;99.90;;;;;;5039044;28;20183;-63
2022/01/31 09:49:30;;;;;;;6.77;1.83;;;5.30;99.90;;;;;;5037858;28;20224;-63
2022/01/31 09:51:56;;;;;;;3.27;2.23;;;5.40;99.90;;;;;;5039619;28;20180;-64
2022/01/31 09:54:24;;;;;;;8.63;2.67;;;5.50;99.90;;;;;;5036652;28;20192;-65
2022/01/31 09:56:50;;;;;;;11.60;2.70;;;5.70;99.90;;;;;;5036515;28;20172;-64
2022/01/31 09:59:17;;;;;;;10.10;3.10;;;5.70;99.90;;;;;;5034475;28;20540;-64
2022/01/31 10:01:51;;;;;;;16.43;2.93;;;5.60;99.90;;;;;;5052763;28;20253;-64
2022/01/31 10:04:19;;;;;;;5.87;2.60;;;5.50;99.90;;;;;;5037626;28;20594;-65
2022/01/31 10:06:48;;;;;;;15.50;2.57;;;5.40;99.90;;;;;;5037109;28;20238;-64
2022/01/31 10:09:28;;;;;;;10.70;2.07;;;5.10;99.90;;;;;;5032062;28;20268;-63
2022/01/31 10:12:12;;;;;;;7.90;2.10;;;5.10;99.90;;;;;;5041621;28;20182;-63
2022/01/31 10:17:39;;;;;;;5.93;2.90;;;4.90;99.90;;;;;;5037683;28;20194;-62
2022/01/31 10:20:20;;;;;;;12.80;4.20;;;4.90;99.90;;;;;;5036942;28;20235;-63
2022/01/31 10:22:46;;;;;;;6.23;2.57;;;4.80;99.90;;;;;;5031685;28;20266;-63
2022/01/31 10:25:18;;;;;;;5.80;2.63;;;4.90;99.90;;;;;;5037303;28;20192;-65
2022/01/31 10:27:52;;;;;;;9.00;3.50;;;4.90;99.90;;;;;;5039790;28;20202;-64
2022/01/31 10:30:23;;;;;;;9.53;3.43;;;4.60;99.90;;;;;;5038592;28;20212;-62
2022/01/31 10:32:50;;;;;;;8.00;3.33;;;4.40;99.90;;;;;;5033834;28;20271;-63
2022/01/31 10:35:22;;;;;;;7.17;3.37;;;4.20;99.90;;;;;;5033287;28;20205;-63
2022/01/31 10:37:49;;;;;;;15.77;4.67;;;4.20;99.90;;;;;;5034295;28;20802;-71
2022/01/31 10:46:33;;;;;;;14.17;4.23;;;3.90;99.90;;;;;;5037280;28;20509;-64
2022/01/31 10:54:12;;;;;;;8.60;3.87;;;4.20;99.90;;;;;;5034050;28;20197;-63
2022/01/31 10:56:44;;;;;;;16.13;3.23;;;4.10;99.90;;;;;;5031115;28;20198;-69
2022/01/31 10:59:15;;;;;;;7.97;2.80;;;4.10;99.90;;;;;;5034844;28;22276;-63
2022/01/31 11:01:43;;;;;;;6.37;2.80;;;4.10;99.90;;;;;;5039851;28;20244;-62
2022/01/31 11:04:11;;;;;;;10.97;3.63;;;4.10;99.90;;;;;;5034480;28;20536;-64
2022/01/31 11:06:41;;;;;;;10.73;3.37;;;4.20;99.90;;;;;;5034473;28;20175;-64
2022/01/31 11:09:10;;;;;;;11.57;3.30;;;4.10;99.90;;;;;;5036510;28;20213;-66
2022/01/31 11:11:38;;;;;;;9.67;3.80;;;4.20;99.90;;;;;;5036296;28;20282;-64
2022/01/31 11:14:05;;;;;;;9.37;3.37;;;4.20;99.90;;;;;;5038167;28;20193;-62
2022/01/31 11:16:31;;;;;;;10.40;3.40;;;4.10;99.90;;;;;;5034146;28;20250;-63
2022/01/31 11:19:00;;;;;;;7.33;3.40;;;4.30;99.90;;;;;;5030900;28;20180;-64
2022/01/31 11:21:29;;;;;;;9.70;3.77;;;4.10;99.90;;;;;;5040802;28;20186;-63
2022/01/31 11:24:01;;;;;;;10.97;4.50;;;4.30;99.90;;;;;;5036221;28;20175;-63
2022/01/31 11:26:34;;;;;;;10.43;4.67;;;4.20;99.90;;;;;;5037888;28;20298;-64
2022/01/31 11:29:01;;;;;;;10.13;4.67;;;4.10;99.90;;;;;;5033928;28;20238;-63
2022/01/31 11:31:28;;;;;;;9.50;4.03;;;4.10;99.90;;;;;;5034803;28;20179;-65
2022/01/31 11:33:56;;;;;;;5.83;3.83;;;4.10;99.90;;;;;;5034769;28;20703;-63
2022/01/31 11:36:22;;;;;;;14.53;4.17;;;4.20;99.90;;;;;;5045056;28;20635;-63
2022/01/31 11:38:48;;;;;;;9.80;4.13;;;4.40;99.90;;;;;;5035570;28;20833;-62
2022/01/31 11:41:16;;;;;;;14.13;3.47;;;4.40;99.90;;;;;;5037073;28;20222;-63
2022/01/31 11:43:51;;;;;;;8.30;3.57;;;4.60;99.90;;;;;;5038299;28;21188;-70
2022/01/31 11:46:21;;;;;;;9.63;3.80;;;4.50;99.90;;;;;;5036853;28;20284;-63
2022/01/31 11:48:47;;;;;;;6.43;3.77;;;4.60;99.90;;;;;;5035533;28;20291;-62
2022/01/31 11:51:13;;;;;;;12.60;4.53;;;4.50;99.90;;;;;;5039421;28;20275;-64
2022/01/31 11:53:39;;;;;;;9.37;4.37;;;4.30;99.90;;;;;;5035918;28;20277;-62
2022/01/31 11:56:23;;;;;;;8.80;3.80;;;4.30;99.90;;;;;;5035536;28;20222;-67
2022/01/31 11:58:52;;;;;;;7.23;3.33;;;4.30;99.90;;;;;;5037526;28;20179;-62
2022/01/31 12:01:23;;;;;;;8.50;2.67;;;4.40;99.90;;;;;;5032838;28;20632;-62
2022/01/31 12:03:58;;;;;;;8.30;3.33;;;4.30;99.90;;;;;;5032963;28;20274;-63
2022/01/31 12:06:25;;;;;;;5.23;3.10;;;4.30;99.90;;;;;;5033686;28;20188;-63
2022/01/31 12:08:53;;;;;;;5.00;2.93;;;4.30;99.90;;;;;;5041863;28;20683;-64
2022/01/31 12:11:26;;;;;;;5.43;2.90;;;4.30;99.90;;;;;;5042411;28;20182;-62
2022/01/31 12:14:08;;;;;;;5.47;3.17;;;4.40;99.90;;;;;;5042609;28;20268;-65
2022/01/31 12:17:10;;;;;;;5.67;3.37;;;4.30;99.90;;;;;;5033376;28;20628;-64
2022/01/31 12:22:10;;;;;;;3.60;2.53;;;4.40;99.90;;;;;;5037060;28;20727;-62
2022/01/31 12:24:40;;;;;;;6.00;2.77;;;4.30;99.90;;;;;;5033084;28;20174;-63
2022/01/31 12:27:20;;;;;;;9.60;3.00;;;4.30;99.90;;;;;;5040850;28;20174;-65
2022/01/31 12:30:04;;;;;;;7.33;3.07;;;4.30;99.90;;;;;;5039407;28;20615;-64
2022/01/31 12:32:37;;;;;;;4.23;2.87;;;4.40;99.90;;;;;;5040316;28;20216;-63
2022/01/31 12:35:05;;;;;;;3.83;2.80;;;4.40;99.90;;;;;;5037985;28;20587;-64
2022/01/31 12:37:34;;;;;;;4.50;3.33;;;4.50;99.90;;;;;;5038576;28;20245;-62
2022/01/31 12:40:09;;;;;;;4.63;2.50;;;4.30;99.90;;;;;;5039622;28;20237;-63
2022/01/31 12:45:37;;;;;;;4.27;3.00;;;4.40;99.90;;;;;;5040499;28;20197;-63
2022/01/31 12:48:06;;;;;;;5.10;2.17;;;4.40;99.90;;;;;;5038937;28;20192;-62
2022/01/31 12:50:44;;;;;;;3.50;2.17;;;4.20;99.90;;;;;;5040573;28;20804;-62
2022/01/31 12:56:08;;;;;;;2.80;1.87;;;4.10;99.90;;;;;;5037469;28;20205;-62
2022/01/31 12:58:35;;;;;;;3.70;2.10;;;4.20;99.90;;;;;;5039518;28;20288;-63
2022/01/31 13:01:14;;;;;;;2.30;1.73;;;4.20;99.90;;;;;;5038313;28;20638;-63
2022/01/31 13:03:44;;;;;;;2.13;1.50;;;4.20;99.90;;;;;;5037526;28;20196;-62
2022/01/31 13:06:28;;;;;;;5.20;2.10;;;4.10;99.90;;;;;;5033662;28;20515;-62
2022/01/31 13:08:55;;;;;;;2.60;2.00;;;4.20;99.90;;;;;;5040469;28;20695;-62
2022/01/31 13:11:21;;;;;;;1.97;1.77;;;4.20;99.90;;;;;;5040262;28;20641;-62
2022/01/31 13:13:47;;;;;;;2.97;1.60;;;4.10;99.90;;;;;;5035484;28;20810;-62
2022/01/31 13:16:14;;;;;;;2.47;1.80;;;4.10;99.90;;;;;;5035808;28;20243;-63
2022/01/31 13:18:40;;;;;;;1.97;1.70;;;4.00;99.90;;;;;;5041471;28;20180;-64
2022/01/31 13:21:09;;;;;;;1.63;1.50;;;4.00;99.90;;;;;;5038360;28;20185;-67